Time;durP1;ratioP1;P1;durP2;ratioP2;P2;SDS_P1;SDS_P2;PMS_P1;PMS_P2;Temp;Humidity;BMP_temperature;BMP_pressure;BME280_temperature;BME280_humidity;BME280_pressure;Samples;Min_cycle;Max_cycle;Signal;HPM_P1;HPM_P2
2021/03/17 00:00:23;;;;;;;4.50;2.77;;;3.40;97.30;;;;;;5044754;28;20434;-86
2021/03/17 00:02:48;;;;;;;5.93;2.70;;;3.40;97.30;;;;;;5032407;28;20211;-85
2021/03/17 00:05:17;;;;;;;7.47;3.53;;;3.40;97.30;;;;;;5017680;28;20423;-85
2021/03/17 00:07:43;;;;;;;4.27;2.40;;;3.40;97.30;;;;;;5016151;28;20243;-86
2021/03/17 00:10:09;;;;;;;8.90;2.80;;;3.40;97.30;;;;;;5016169;28;20848;-86
2021/03/17 00:12:35;;;;;;;7.03;3.30;;;3.40;97.30;;;;;;5017607;28;20204;-86
2021/03/17 00:15:00;;;;;;;6.00;2.97;;;3.40;97.30;;;;;;5035253;28;20473;-87
2021/03/17 00:17:26;;;;;;;4.67;2.30;;;3.30;97.30;;;;;;5017180;28;20249;-86
2021/03/17 00:19:52;;;;;;;6.63;2.30;;;3.30;97.30;;;;;;5017321;28;20665;-86
2021/03/17 00:22:17;;;;;;;8.43;2.20;;;3.30;97.30;;;;;;5017177;28;20193;-86
2021/03/17 00:24:43;;;;;;;15.23;2.30;;;3.20;97.30;;;;;;5017131;28;20177;-85
2021/03/17 00:27:09;;;;;;;6.33;2.37;;;3.20;97.30;;;;;;5036465;28;20520;-86
2021/03/17 00:29:34;;;;;;;5.60;2.60;;;3.20;97.30;;;;;;5021978;28;20168;-86
2021/03/17 00:32:00;;;;;;;6.20;2.20;;;3.10;97.30;;;;;;5022076;28;20243;-86
2021/03/17 00:34:26;;;;;;;11.20;2.60;;;3.10;97.30;;;;;;5038503;28;20234;-87
2021/03/17 00:36:51;;;;;;;7.20;2.70;;;3.10;97.30;;;;;;5042225;28;20237;-87
2021/03/17 00:39:17;;;;;;;7.77;2.07;;;3.10;97.30;;;;;;5059407;28;20239;-86
2021/03/17 00:41:43;;;;;;;9.20;2.50;;;3.10;97.30;;;;;;5041976;28;20663;-85
2021/03/17 00:44:08;;;;;;;9.03;2.80;;;3.10;97.30;;;;;;5045608;28;20184;-88
2021/03/17 00:46:34;;;;;;;8.97;2.50;;;3.10;97.30;;;;;;5044583;28;20188;-86
2021/03/17 00:48:59;;;;;;;6.60;2.20;;;3.00;97.30;;;;;;5041723;28;20179;-86
2021/03/17 00:51:25;;;;;;;7.13;3.13;;;3.00;97.30;;;;;;5059302;28;20310;-87
2021/03/17 00:53:50;;;;;;;4.20;2.50;;;3.00;97.30;;;;;;5045276;28;20661;-86
2021/03/17 00:56:16;;;;;;;11.20;3.17;;;3.00;97.30;;;;;;5025142;28;20275;-86
2021/03/17 00:58:42;;;;;;;6.83;3.23;;;2.90;97.30;;;;;;5021316;28;20227;-86
2021/03/17 01:01:07;;;;;;;9.47;3.23;;;2.80;97.30;;;;;;5021315;28;20250;-87
2021/03/17 01:03:33;;;;;;;6.37;3.20;;;2.80;97.30;;;;;;5021464;28;20676;-85
2021/03/17 01:05:59;;;;;;;10.93;4.50;;;2.80;97.30;;;;;;5020678;28;20181;-86
2021/03/17 01:08:24;;;;;;;9.30;3.67;;;2.70;97.30;;;;;;5020838;28;20177;-86
2021/03/17 01:10:50;;;;;;;5.30;3.80;;;2.70;97.30;;;;;;5018621;28;20638;-86
2021/03/17 01:13:16;;;;;;;10.00;3.97;;;2.70;97.30;;;;;;5036692;28;20537;-86
2021/03/17 01:15:44;;;;;;;9.10;3.87;;;2.70;97.30;;;;;;5034847;28;20200;-87
2021/03/17 01:18:12;;;;;;;13.03;3.57;;;2.60;97.30;;;;;;5035507;28;20466;-86
2021/03/17 01:20:39;;;;;;;9.83;4.90;;;2.60;97.30;;;;;;5035211;28;20411;-86
2021/03/17 01:23:05;;;;;;;4.73;2.93;;;2.60;97.30;;;;;;5036243;28;20423;-86
2021/03/17 01:25:43;;;;;;;12.10;3.50;;;2.60;97.30;;;;;;5034425;28;20916;-86
2021/03/17 01:28:10;;;;;;;12.63;3.70;;;2.60;97.30;;;;;;5034777;28;20419;-86
2021/03/17 01:30:40;;;;;;;9.53;3.37;;;2.60;97.30;;;;;;5034475;28;20514;-86
2021/03/17 01:33:07;;;;;;;5.70;3.37;;;2.60;97.30;;;;;;5035266;28;20501;-86
2021/03/17 01:35:33;;;;;;;7.00;3.80;;;2.60;97.30;;;;;;5035240;28;20854;-86
2021/03/17 01:37:59;;;;;;;7.80;3.43;;;2.50;97.30;;;;;;5036391;28;20455;-88
2021/03/17 01:40:26;;;;;;;10.00;3.13;;;2.50;97.30;;;;;;5035152;28;20491;-88
2021/03/17 01:42:53;;;;;;;14.23;3.20;;;2.50;97.30;;;;;;5035346;28;20219;-86
2021/03/17 01:45:19;;;;;;;9.07;3.13;;;2.50;97.30;;;;;;5035863;28;20478;-86
2021/03/17 01:47:47;;;;;;;5.20;3.07;;;2.50;97.30;;;;;;5038517;28;20837;-88
2021/03/17 01:50:40;;;;;;;8.50;3.53;;;2.40;97.30;;;;;;5038148;28;20438;-86
2021/03/17 01:53:15;;;;;;;7.30;2.97;;;2.40;97.30;;;;;;5031698;28;20475;-85
2021/03/17 01:55:42;;;;;;;9.87;3.03;;;2.40;97.30;;;;;;5036053;28;20413;-86
2021/03/17 01:58:08;;;;;;;10.23;3.13;;;2.40;97.30;;;;;;5018359;28;20542;-86
2021/03/17 02:00:35;;;;;;;17.00;4.00;;;2.40;97.30;;;;;;5037443;28;20830;-86
2021/03/17 02:03:00;;;;;;;8.97;3.67;;;2.40;97.30;;;;;;5019418;28;20419;-86
2021/03/17 02:05:41;;;;;;;7.40;3.63;;;2.40;97.30;;;;;;5018615;28;20438;-86
2021/03/17 02:08:13;;;;;;;10.53;3.53;;;2.40;97.30;;;;;;5018382;28;20661;-86
2021/03/17 02:10:39;;;;;;;8.60;3.23;;;2.30;97.30;;;;;;5017953;28;20423;-86
2021/03/17 02:13:32;;;;;;;12.30;3.57;;;2.30;97.30;;;;;;5035653;28;20442;-85
2021/03/17 02:16:39;;;;;;;10.30;3.93;;;2.30;97.30;;;;;;5018446;28;20411;-86
2021/03/17 02:19:05;;;;;;;8.73;3.40;;;2.30;97.30;;;;;;4964724;28;20478;-86
2021/03/17 02:21:55;;;;;;;11.93;4.53;;;2.30;97.30;;;;;;5018137;28;20451;-87
2021/03/17 02:24:45;;;;;;;8.60;3.30;;;2.30;97.30;;;;;;5018047;28;20188;-86
2021/03/17 02:27:48;;;;;;;8.73;3.20;;;2.30;97.30;;;;;;5018135;28;20885;-86
2021/03/17 02:30:31;;;;;;;10.20;3.30;;;2.30;97.30;;;;;;5035881;28;20430;-86
2021/03/17 02:33:35;;;;;;;13.33;4.17;;;2.30;97.30;;;;;;5018330;28;20459;-86
2021/03/17 02:36:18;;;;;;;10.27;3.53;;;2.30;97.30;;;;;;5034082;28;20461;-86
2021/03/17 02:38:52;;;;;;;15.33;3.73;;;2.30;97.30;;;;;;5033742;28;20462;-86
2021/03/17 02:41:25;;;;;;;15.10;3.70;;;2.30;97.30;;;;;;5034404;28;20435;-85
2021/03/17 02:43:54;;;;;;;10.27;3.30;;;2.30;97.30;;;;;;5029132;28;20420;-86
2021/03/17 02:46:22;;;;;;;9.33;3.33;;;2.30;97.30;;;;;;5020168;28;20414;-86
2021/03/17 02:48:59;;;;;;;11.23;3.23;;;2.30;97.30;;;;;;5037003;28;20480;-84
2021/03/17 02:51:37;;;;;;;12.23;4.20;;;2.30;97.30;;;;;;5030482;28;20469;-85
2021/03/17 02:54:06;;;;;;;15.53;3.57;;;2.20;97.30;;;;;;5017566;28;20427;-86
2021/03/17 02:56:37;;;;;;;5.77;3.63;;;2.20;97.30;;;;;;5018060;28;20851;-87
2021/03/17 02:59:04;;;;;;;9.00;2.93;;;2.20;97.30;;;;;;5035502;28;20447;-86
2021/03/17 03:01:31;;;;;;;9.00;3.17;;;2.20;97.30;;;;;;5017131;28;20451;-86
2021/03/17 03:03:59;;;;;;;12.70;3.60;;;2.20;97.30;;;;;;5034965;28;20473;-86
2021/03/17 03:06:26;;;;;;;13.87;3.20;;;2.20;97.30;;;;;;5017745;28;20520;-86
2021/03/17 03:08:53;;;;;;;6.47;3.50;;;2.10;97.30;;;;;;5017919;28;20426;-86
2021/03/17 03:11:19;;;;;;;6.97;3.17;;;2.10;97.30;;;;;;5017022;28;20500;-87
2021/03/17 03:13:48;;;;;;;11.00;3.50;;;2.10;97.30;;;;;;5016968;28;20438;-88
2021/03/17 03:16:14;;;;;;;8.50;3.93;;;2.00;97.30;;;;;;5017005;28;20510;-88
2021/03/17 03:18:43;;;;;;;7.50;3.73;;;2.00;97.30;;;;;;5016810;28;20466;-87
2021/03/17 03:21:10;;;;;;;11.30;4.20;;;2.00;97.30;;;;;;5016580;28;20449;-86
2021/03/17 03:23:37;;;;;;;11.53;4.53;;;2.00;97.30;;;;;;5016459;28;20465;-87
2021/03/17 03:26:04;;;;;;;8.93;4.00;;;2.00;97.30;;;;;;5016661;28;20787;-86
2021/03/17 03:28:32;;;;;;;15.87;3.60;;;2.00;97.30;;;;;;5016563;28;20420;-86
2021/03/17 03:30:59;;;;;;;7.70;3.70;;;1.90;97.30;;;;;;5016188;28;20807;-86
2021/03/17 03:33:25;;;;;;;7.57;3.80;;;1.90;97.30;;;;;;5016572;28;20431;-88
2021/03/17 03:35:50;;;;;;;5.03;3.73;;;1.90;97.30;;;;;;5016551;28;20449;-86
2021/03/17 03:38:18;;;;;;;10.90;3.80;;;1.90;97.30;;;;;;5016349;28;20286;-86
2021/03/17 03:40:45;;;;;;;10.20;4.00;;;1.90;97.30;;;;;;5015564;28;20183;-87
2021/03/17 03:43:11;;;;;;;7.17;3.97;;;1.90;97.30;;;;;;5016062;28;20509;-86
2021/03/17 03:45:38;;;;;;;8.17;3.60;;;1.90;97.30;;;;;;4996323;28;20431;-87
2021/03/17 03:48:05;;;;;;;8.10;3.77;;;1.80;97.30;;;;;;5026805;28;20973;-86
2021/03/17 03:50:35;;;;;;;18.20;4.73;;;1.80;97.30;;;;;;5032203;28;20521;-86
2021/03/17 03:53:19;;;;;;;9.40;4.17;;;1.80;97.30;;;;;;5031800;28;20894;-86
2021/03/17 03:56:05;;;;;;;14.47;5.17;;;1.80;97.30;;;;;;4996552;28;20463;-86
2021/03/17 03:59:00;;;;;;;10.50;4.17;;;1.80;97.30;;;;;;4995031;28;21036;-86
2021/03/17 04:01:37;;;;;;;8.03;3.80;;;1.80;97.30;;;;;;4981257;28;21053;-86
2021/03/17 04:04:11;;;;;;;14.80;4.13;;;1.80;97.30;;;;;;5022860;28;20840;-86
2021/03/17 04:06:38;;;;;;;9.97;3.80;;;1.80;97.30;;;;;;5018486;28;20501;-87
2021/03/17 04:09:05;;;;;;;7.77;3.60;;;1.80;97.30;;;;;;5036218;28;20415;-87
2021/03/17 04:11:32;;;;;;;11.67;3.80;;;1.80;97.30;;;;;;5018118;28;20573;-86
2021/03/17 04:14:03;;;;;;;18.23;4.63;;;1.80;97.30;;;;;;5035435;28;20482;-87
2021/03/17 04:16:31;;;;;;;10.87;4.33;;;1.80;97.30;;;;;;5018051;28;20922;-87
2021/03/17 04:18:59;;;;;;;6.33;3.33;;;1.70;97.30;;;;;;5021951;28;20458;-87
2021/03/17 04:21:28;;;;;;;8.87;3.93;;;1.60;97.30;;;;;;5023958;28;20461;-86
2021/03/17 04:23:57;;;;;;;6.00;4.03;;;1.60;97.30;;;;;;5037468;28;20411;-91
2021/03/17 04:26:23;;;;;;;6.30;3.83;;;1.60;97.30;;;;;;5033292;28;20941;-87
2021/03/17 04:28:51;;;;;;;12.03;4.03;;;1.60;97.30;;;;;;5018493;28;20407;-86
2021/03/17 04:31:18;;;;;;;8.30;3.80;;;1.60;97.30;;;;;;5017752;28;20526;-86
2021/03/17 04:33:44;;;;;;;8.70;3.63;;;1.50;97.30;;;;;;5016917;28;20419;-87
2021/03/17 04:36:12;;;;;;;7.83;3.83;;;1.50;97.30;;;;;;5017615;28;20786;-86
2021/03/17 04:38:39;;;;;;;9.87;3.47;;;1.50;97.30;;;;;;5016989;28;20557;-87
2021/03/17 04:41:04;;;;;;;9.50;3.70;;;1.50;97.30;;;;;;5017113;28;20510;-86
2021/03/17 04:43:30;;;;;;;14.00;4.50;;;1.50;97.30;;;;;;5034532;28;20457;-86
2021/03/17 04:46:01;;;;;;;11.83;4.00;;;1.40;97.30;;;;;;5016775;28;20176;-86
2021/03/17 04:48:27;;;;;;;15.33;4.37;;;1.40;97.30;;;;;;5017300;28;20420;-86
2021/03/17 04:50:54;;;;;;;11.10;4.23;;;1.40;97.30;;;;;;5018070;28;20415;-86
2021/03/17 04:53:19;;;;;;;9.00;3.80;;;1.30;97.30;;;;;;5036442;28;20516;-86
2021/03/17 04:55:45;;;;;;;20.33;5.17;;;1.30;97.30;;;;;;5034845;28;20438;-86
2021/03/17 04:58:22;;;;;;;13.03;4.50;;;1.30;97.30;;;;;;5034074;28;20632;-86
2021/03/17 05:00:49;;;;;;;17.83;4.27;;;1.30;97.30;;;;;;5032164;28;20191;-85
2021/03/17 05:03:19;;;;;;;5.77;3.67;;;1.30;97.30;;;;;;5032562;28;21000;-85
2021/03/17 05:05:48;;;;;;;9.70;4.00;;;1.30;97.30;;;;;;5033610;28;20422;-85
2021/03/17 05:08:16;;;;;;;12.13;4.47;;;1.40;97.30;;;;;;5032429;28;20438;-85
2021/03/17 05:10:43;;;;;;;7.83;3.83;;;1.40;97.30;;;;;;5034281;28;20922;-85
2021/03/17 05:13:12;;;;;;;19.70;4.53;;;1.30;97.30;;;;;;5031141;28;20419;-86
2021/03/17 05:15:39;;;;;;;10.63;4.60;;;1.30;97.30;;;;;;5018804;28;20422;-86
2021/03/17 05:18:06;;;;;;;10.37;4.47;;;1.30;97.30;;;;;;5017156;28;20506;-86
2021/03/17 05:20:33;;;;;;;13.33;5.33;;;1.30;97.30;;;;;;5016865;28;20505;-88
2021/03/17 05:23:00;;;;;;;14.77;4.30;;;1.30;97.30;;;;;;5016740;28;20447;-86
2021/03/17 05:25:27;;;;;;;13.77;5.73;;;1.30;97.30;;;;;;5017074;28;20423;-86
2021/03/17 05:27:55;;;;;;;14.73;5.23;;;1.40;97.30;;;;;;5016975;28;20415;-86
2021/03/17 05:30:24;;;;;;;18.17;4.80;;;1.40;97.30;;;;;;5016876;28;20469;-86
2021/03/17 05:32:51;;;;;;;10.93;4.00;;;1.40;97.30;;;;;;5016667;28;20842;-85
2021/03/17 05:35:17;;;;;;;18.13;3.97;;;1.40;97.30;;;;;;5034968;28;20425;-86
2021/03/17 05:37:45;;;;;;;19.33;3.70;;;1.50;97.30;;;;;;5033266;28;20462;-86
2021/03/17 05:40:13;;;;;;;10.13;3.70;;;1.50;97.30;;;;;;5033039;28;20473;-86
2021/03/17 05:42:40;;;;;;;9.23;4.33;;;1.50;97.30;;;;;;5034300;28;20469;-86
2021/03/17 05:45:14;;;;;;;8.67;3.87;;;1.50;97.30;;;;;;5024720;28;20881;-86
2021/03/17 05:47:44;;;;;;;10.10;3.90;;;1.50;97.30;;;;;;5030428;28;20423;-87
2021/03/17 05:50:11;;;;;;;11.13;4.50;;;1.50;97.30;;;;;;5036486;28;20437;-87
2021/03/17 05:52:45;;;;;;;14.47;4.33;;;1.50;97.30;;;;;;5067969;23;20525;-84
2021/03/17 05:55:34;;;;;;;21.90;5.27;;;1.50;97.30;;;;;;5056205;28;20460;-84
2021/03/17 05:58:12;;;;;;;16.73;5.40;;;1.50;97.30;;;;;;5059955;28;20453;-81
2021/03/17 06:00:38;;;;;;;14.43;5.37;;;1.50;97.30;;;;;;5058031;28;21040;-82
2021/03/17 06:03:04;;;;;;;13.83;5.67;;;1.40;97.30;;;;;;5042738;28;20438;-84
2021/03/17 06:06:17;;;;;;;;;;;;;;;;;;;;;
2021/03/17 06:09:48;;;;;;;;;;;;;;;;;;;;;
2021/03/17 06:12:37;;;;;;;9.83;5.80;;;1.40;97.30;;;;;;5020894;28;20514;-82
2021/03/17 06:19:19;;;;;;;11.27;5.80;;;1.30;97.30;;;;;;4958169;29;20532;-82
2021/03/17 06:21:45;;;;;;;12.10;6.17;;;1.30;97.30;;;;;;4992770;23;20497;-74
2021/03/17 06:24:11;;;;;;;12.97;6.13;;;1.30;97.30;;;;;;5049731;28;20441;-74
2021/03/17 06:26:42;;;;;;;9.83;5.90;;;1.20;97.30;;;;;;5047790;28;20175;-74
2021/03/17 06:29:09;;;;;;;16.13;5.40;;;1.20;97.30;;;;;;5047906;28;20414;-74
2021/03/17 06:31:35;;;;;;;11.37;5.40;;;1.30;97.30;;;;;;5044208;28;20784;-74
2021/03/17 06:34:01;;;;;;;9.20;6.20;;;1.30;97.30;;;;;;5038563;28;20415;-74
2021/03/17 06:36:27;;;;;;;8.07;6.10;;;1.30;97.30;;;;;;5038962;28;20846;-74
2021/03/17 06:39:06;;;;;;;19.80;5.93;;;1.30;97.30;;;;;;5039191;28;20222;-74
2021/03/17 06:42:04;;;;;;;12.93;7.07;;;1.30;97.30;;;;;;5041175;28;20745;-74
2021/03/17 06:44:31;;;;;;;19.30;6.83;;;1.40;97.30;;;;;;4982677;28;20411;-74
2021/03/17 06:47:19;;;;;;;14.53;7.00;;;1.40;97.30;;;;;;5039247;28;20430;-73
2021/03/17 06:49:50;;;;;;;9.57;6.17;;;1.40;97.30;;;;;;5040208;28;20471;-74
2021/03/17 06:52:38;;;;;;;17.13;6.30;;;1.40;97.30;;;;;;5039993;28;20699;-73
2021/03/17 06:55:19;;;;;;;16.53;6.87;;;1.50;97.30;;;;;;5040659;28;20525;-73
2021/03/17 06:57:51;;;;;;;14.63;6.47;;;1.50;97.30;;;;;;5039445;28;20442;-73
2021/03/17 07:00:20;;;;;;;20.27;8.27;;;1.50;97.30;;;;;;5039894;28;20490;-73
2021/03/17 07:03:06;;;;;;;12.60;5.90;;;1.60;97.30;;;;;;5044685;28;20954;-73
2021/03/17 07:05:45;;;;;;;16.67;6.53;;;1.50;97.30;;;;;;5041296;28;20426;-74
2021/03/17 07:08:27;;;;;;;18.97;6.33;;;1.60;97.30;;;;;;5039371;28;20492;-73
2021/03/17 07:11:03;;;;;;;19.17;6.80;;;1.60;97.30;;;;;;5034643;28;20519;-73
2021/03/17 07:13:30;;;;;;;22.60;7.60;;;1.60;97.30;;;;;;5038890;28;20430;-73
2021/03/17 07:15:58;;;;;;;19.00;9.53;;;1.60;97.30;;;;;;5043340;28;20423;-74
2021/03/17 07:18:31;;;;;;;11.00;7.20;;;1.70;97.30;;;;;;5039728;28;20450;-72
2021/03/17 07:21:02;;;;;;;21.63;6.10;;;1.70;97.30;;;;;;5039215;28;20466;-74
2021/03/17 07:23:33;;;;;;;14.33;5.43;;;1.70;97.30;;;;;;5038799;28;20454;-74
2021/03/17 07:26:09;;;;;;;10.10;4.90;;;1.60;97.30;;;;;;5039859;28;20551;-74
2021/03/17 07:29:01;;;;;;;15.97;5.90;;;1.70;97.30;;;;;;5039649;28;20415;-75
2021/03/17 07:31:31;;;;;;;13.50;4.77;;;1.70;97.30;;;;;;5040725;28;20435;-75
2021/03/17 07:34:22;;;;;;;9.30;4.27;;;1.70;97.30;;;;;;5038385;28;20437;-75
2021/03/17 07:37:00;;;;;;;10.37;4.43;;;1.80;97.30;;;;;;5040356;28;20410;-75
2021/03/17 07:39:31;;;;;;;17.63;4.20;;;1.90;97.30;;;;;;5039660;28;20502;-74
2021/03/17 07:42:00;;;;;;;18.20;4.57;;;2.00;97.30;;;;;;5040868;28;20433;-75
2021/03/17 07:44:27;;;;;;;8.97;3.90;;;2.00;97.30;;;;;;5040617;28;20441;-74
2021/03/17 07:46:58;;;;;;;18.90;4.40;;;2.10;97.30;;;;;;5041626;28;20411;-74
2021/03/17 07:49:25;;;;;;;9.70;4.40;;;2.20;97.30;;;;;;5036700;28;20438;-75
2021/03/17 07:51:53;;;;;;;10.87;3.60;;;2.20;97.30;;;;;;5041902;28;20950;-74
2021/03/17 07:54:33;;;;;;;6.50;4.00;;;2.20;97.30;;;;;;5039528;28;20419;-74
2021/03/17 07:57:01;;;;;;;10.23;4.03;;;2.20;97.30;;;;;;5040668;28;20434;-74
2021/03/17 07:59:27;;;;;;;14.00;4.23;;;2.20;97.30;;;;;;5038666;28;20508;-74
2021/03/17 08:01:55;;;;;;;19.20;4.67;;;2.20;97.30;;;;;;5043873;28;20438;-73
2021/03/17 08:04:27;;;;;;;11.13;4.30;;;2.20;97.30;;;;;;5039249;28;20429;-74
2021/03/17 08:06:59;;;;;;;13.43;3.70;;;2.10;97.30;;;;;;5040699;28;20414;-74
2021/03/17 08:09:24;;;;;;;8.80;3.60;;;2.10;97.30;;;;;;5040787;28;20426;-75
2021/03/17 08:11:57;;;;;;;12.13;4.07;;;2.10;97.30;;;;;;5039302;28;20441;-74
2021/03/17 08:14:25;;;;;;;14.70;4.67;;;2.10;97.30;;;;;;5042746;28;20199;-74
2021/03/17 08:16:51;;;;;;;13.33;3.57;;;2.10;97.30;;;;;;5044708;28;20508;-74
2021/03/17 08:19:25;;;;;;;8.00;3.50;;;2.10;97.30;;;;;;5039849;28;20463;-74
2021/03/17 08:22:00;;;;;;;9.63;3.50;;;2.10;97.30;;;;;;5037138;28;20824;-75
2021/03/17 08:24:38;;;;;;;11.50;4.87;;;2.10;97.30;;;;;;5046776;28;20419;-75
2021/03/17 08:27:07;;;;;;;8.43;3.73;;;2.10;97.30;;;;;;5038748;28;20473;-75
2021/03/17 08:30:02;;;;;;;12.33;3.63;;;2.20;97.30;;;;;;5041848;28;20438;-74
2021/03/17 08:32:55;;;;;;;8.50;4.60;;;2.20;97.30;;;;;;5036804;28;20903;-74
2021/03/17 08:35:21;;;;;;;11.37;3.43;;;2.20;97.30;;;;;;5040581;28;20445;-74
2021/03/17 08:37:55;;;;;;;7.93;3.57;;;2.20;97.30;;;;;;5050641;28;20982;-74
2021/03/17 08:40:26;;;;;;;9.27;4.57;;;2.20;97.30;;;;;;5052470;28;20414;-73
2021/03/17 08:42:52;;;;;;;8.50;3.93;;;2.20;97.30;;;;;;5052118;28;20466;-74
2021/03/17 08:45:19;;;;;;;7.37;3.20;;;2.30;97.30;;;;;;5049718;28;20422;-74
2021/03/17 08:47:46;;;;;;;12.77;3.97;;;2.30;97.30;;;;;;5051751;28;20619;-74
2021/03/17 08:50:18;;;;;;;11.30;3.70;;;2.30;97.30;;;;;;5055085;28;20445;-74
2021/03/17 08:52:48;;;;;;;12.53;4.40;;;2.30;97.30;;;;;;5055462;28;20410;-74
2021/03/17 08:55:18;;;;;;;10.50;4.30;;;2.30;97.30;;;;;;5056052;28;20498;-74
2021/03/17 08:58:07;;;;;;;12.70;4.00;;;2.30;97.30;;;;;;5054185;28;20462;-73
2021/03/17 09:00:42;;;;;;;7.93;4.27;;;2.40;97.30;;;;;;5055026;28;20509;-73
2021/03/17 09:03:09;;;;;;;7.90;4.50;;;2.40;97.30;;;;;;5055277;28;20410;-73
2021/03/17 09:05:35;;;;;;;11.67;4.30;;;2.40;97.30;;;;;;5056244;28;20437;-73
2021/03/17 09:08:09;;;;;;;7.40;4.00;;;2.50;97.30;;;;;;5053398;28;20426;-74
2021/03/17 09:10:46;;;;;;;8.40;4.17;;;2.50;97.30;;;;;;5055093;28;20430;-73
2021/03/17 09:13:15;;;;;;;10.43;4.73;;;2.50;97.30;;;;;;5054238;28;21010;-73
2021/03/17 09:15:50;;;;;;;11.60;4.80;;;2.60;97.30;;;;;;5054259;28;20414;-73
2021/03/17 09:18:20;;;;;;;9.63;3.90;;;2.50;97.30;;;;;;5055877;28;20442;-73
2021/03/17 09:20:50;;;;;;;10.70;4.60;;;2.50;97.30;;;;;;5042864;28;20430;-74
2021/03/17 09:23:22;;;;;;;13.90;4.50;;;2.60;97.30;;;;;;5043198;28;20447;-72
2021/03/17 09:25:49;;;;;;;11.43;4.57;;;2.60;97.30;;;;;;5043883;28;20407;-72
2021/03/17 09:28:30;;;;;;;10.67;4.57;;;2.60;97.30;;;;;;5042123;28;20482;-73
2021/03/17 09:31:02;;;;;;;11.97;4.50;;;2.70;97.30;;;;;;5037056;28;20439;-73
2021/03/17 09:33:40;;;;;;;15.70;4.43;;;2.70;97.30;;;;;;5032106;28;20447;-73
2021/03/17 09:36:10;;;;;;;22.53;4.97;;;2.70;97.30;;;;;;5039602;28;20493;-73
2021/03/17 09:38:40;;;;;;;16.10;5.80;;;2.80;97.30;;;;;;5032345;28;20443;-73
2021/03/17 09:41:30;;;;;;;12.50;4.90;;;2.90;97.30;;;;;;5032589;28;20453;-73
2021/03/17 09:44:00;;;;;;;11.07;5.07;;;2.90;97.30;;;;;;5031169;28;20395;-74
2021/03/17 09:46:46;;;;;;;9.07;6.10;;;2.90;97.30;;;;;;5044343;28;20411;-74
2021/03/17 09:49:14;;;;;;;16.20;5.63;;;3.00;97.30;;;;;;5031743;28;20403;-74
2021/03/17 09:51:49;;;;;;;14.20;6.70;;;3.10;97.30;;;;;;5031033;28;20675;-74
2021/03/17 09:54:18;;;;;;;15.43;6.30;;;3.10;97.30;;;;;;5033084;28;20392;-74
2021/03/17 09:56:55;;;;;;;11.90;5.30;;;3.10;97.30;;;;;;5048951;28;20430;-74
2021/03/17 09:59:34;;;;;;;16.13;5.53;;;3.10;97.30;;;;;;5051423;28;20453;-74
2021/03/17 10:02:31;;;;;;;15.63;5.93;;;3.10;97.30;;;;;;5051303;28;20418;-74
2021/03/17 10:05:01;;;;;;;15.60;5.60;;;3.20;97.30;;;;;;5051314;28;20419;-73
2021/03/17 10:07:29;;;;;;;12.83;6.80;;;3.20;97.30;;;;;;5052400;28;20406;-74
2021/03/17 10:09:57;;;;;;;12.07;7.30;;;3.20;97.30;;;;;;5051328;28;20413;-74
2021/03/17 10:12:31;;;;;;;14.20;7.40;;;3.10;97.30;;;;;;5050442;28;20855;-74
2021/03/17 10:15:06;;;;;;;14.93;7.10;;;3.20;97.30;;;;;;5050379;28;20931;-74
2021/03/17 10:17:32;;;;;;;17.30;6.57;;;3.20;97.30;;;;;;5050978;28;20422;-74
2021/03/17 10:20:01;;;;;;;11.80;7.00;;;3.30;97.30;;;;;;5051710;28;20434;-74
2021/03/17 10:22:28;;;;;;;17.80;7.53;;;3.30;97.30;;;;;;5051733;28;20537;-74
2021/03/17 10:24:57;;;;;;;15.80;7.03;;;3.40;97.30;;;;;;5050709;28;20421;-74
2021/03/17 10:27:40;;;;;;;15.60;7.23;;;3.50;97.30;;;;;;5050505;28;20802;-76
2021/03/17 10:30:08;;;;;;;15.77;7.27;;;3.60;97.30;;;;;;5050506;28;20425;-75
2021/03/17 10:32:36;;;;;;;13.50;6.33;;;3.70;97.30;;;;;;5051008;28;20465;-73
2021/03/17 10:35:14;;;;;;;16.80;7.30;;;3.80;97.30;;;;;;5050126;28;20911;-74
2021/03/17 10:37:41;;;;;;;15.80;6.27;;;3.90;97.30;;;;;;5051193;28;21008;-74
2021/03/17 10:40:13;;;;;;;12.57;6.93;;;3.90;97.30;;;;;;5051808;28;20410;-74
2021/03/17 10:42:58;;;;;;;15.97;6.97;;;3.90;97.30;;;;;;5051408;28;20406;-74
2021/03/17 10:45:47;;;;;;;18.03;6.17;;;4.00;97.30;;;;;;5049744;28;20418;-74
2021/03/17 10:48:15;;;;;;;15.07;6.50;;;4.00;97.30;;;;;;5050673;28;20938;-74
2021/03/17 10:50:42;;;;;;;12.90;6.27;;;4.10;97.30;;;;;;5049521;28;20830;-74
2021/03/17 10:53:21;;;;;;;12.30;6.63;;;4.10;97.30;;;;;;5050173;28;20817;-74
2021/03/17 10:55:51;;;;;;;13.37;5.60;;;4.00;97.30;;;;;;5050486;28;20426;-74
2021/03/17 10:58:22;;;;;;;15.00;6.27;;;4.00;97.30;;;;;;5049648;28;20453;-74
2021/03/17 11:00:51;;;;;;;21.90;7.10;;;4.00;97.30;;;;;;5049656;28;20426;-74
2021/03/17 11:03:39;;;;;;;15.00;6.00;;;4.10;97.30;;;;;;5050466;28;20425;-74
2021/03/17 11:06:18;;;;;;;14.20;6.00;;;4.20;97.30;;;;;;5049334;28;20483;-74
2021/03/17 11:09:03;;;;;;;25.77;7.60;;;4.20;97.30;;;;;;5050677;28;20410;-74
2021/03/17 11:11:29;;;;;;;12.47;6.73;;;4.30;97.30;;;;;;5049955;28;20483;-74
2021/03/17 11:13:55;;;;;;;20.27;6.57;;;4.20;97.30;;;;;;5049639;28;20418;-74
2021/03/17 11:16:36;;;;;;;16.27;6.17;;;4.30;97.30;;;;;;5049295;28;20980;-74
2021/03/17 11:19:12;;;;;;;22.17;8.00;;;4.30;97.30;;;;;;5049767;28;20536;-75
2021/03/17 11:21:40;;;;;;;19.57;7.80;;;4.40;97.30;;;;;;5048921;28;20430;-74
2021/03/17 11:24:15;;;;;;;20.53;6.90;;;4.60;97.30;;;;;;5049823;28;20830;-74
2021/03/17 11:26:41;;;;;;;18.43;7.13;;;4.80;97.30;;;;;;5049566;28;20476;-74
2021/03/17 11:29:24;;;;;;;12.60;6.43;;;5.00;97.30;;;;;;5048947;28;20430;-74
2021/03/17 11:32:03;;;;;;;15.97;7.03;;;5.10;97.30;;;;;;5049655;28;20470;-74
2021/03/17 11:34:29;;;;;;;14.23;7.00;;;5.00;97.30;;;;;;5049225;28;20414;-74
2021/03/17 11:36:54;;;;;;;14.80;6.80;;;5.00;97.30;;;;;;5050381;28;20426;-74
2021/03/17 11:39:20;;;;;;;28.40;7.50;;;5.10;97.30;;;;;;5050816;28;20243;-74
2021/03/17 11:41:48;;;;;;;16.30;7.00;;;5.10;97.30;;;;;;5051433;28;20219;-74
2021/03/17 11:44:17;;;;;;;24.40;7.90;;;5.00;97.30;;;;;;5049026;28;20869;-74
2021/03/17 11:46:43;;;;;;;22.20;7.87;;;5.10;97.30;;;;;;5044359;28;20423;-74
2021/03/17 11:49:09;;;;;;;14.10;6.80;;;5.00;97.30;;;;;;5029587;28;20464;-74
2021/03/17 11:51:35;;;;;;;16.27;7.77;;;4.90;97.30;;;;;;5046787;23;20451;-76
2021/03/17 11:54:00;;;;;;;21.30;8.33;;;5.00;97.30;;;;;;5038967;28;21065;-74
2021/03/17 11:56:26;;;;;;;14.33;6.40;;;5.00;97.30;;;;;;5050822;28;20179;-74
2021/03/17 11:58:52;;;;;;;17.03;8.07;;;5.00;97.30;;;;;;5032278;28;20196;-74
2021/03/17 12:01:17;;;;;;;11.80;6.40;;;5.00;97.30;;;;;;5032623;28;20589;-75
2021/03/17 12:03:43;;;;;;;17.03;6.53;;;5.00;97.30;;;;;;5032746;28;20548;-74
2021/03/17 12:06:10;;;;;;;15.40;6.80;;;5.00;97.30;;;;;;5032509;28;20176;-74
2021/03/17 12:08:37;;;;;;;24.70;6.80;;;5.20;97.30;;;;;;5032301;28;20660;-75
2021/03/17 12:11:04;;;;;;;19.33;6.37;;;5.30;97.30;;;;;;5032444;28;20442;-74
2021/03/17 12:13:29;;;;;;;22.13;6.70;;;5.30;97.30;;;;;;5050022;28;20425;-75
2021/03/17 12:15:55;;;;;;;14.73;6.80;;;5.40;97.30;;;;;;5031981;28;20430;-75
2021/03/17 12:18:22;;;;;;;13.50;6.53;;;5.40;97.30;;;;;;5032790;28;20480;-75
2021/03/17 12:20:48;;;;;;;13.90;6.87;;;5.40;97.30;;;;;;5031737;28;20941;-75
2021/03/17 12:23:15;;;;;;;16.20;6.63;;;5.50;97.30;;;;;;5022086;28;20518;-75
2021/03/17 12:25:41;;;;;;;12.90;6.10;;;5.70;97.30;;;;;;5025804;28;20419;-75
2021/03/17 12:28:07;;;;;;;15.37;7.10;;;5.90;97.30;;;;;;5036190;28;20499;-75
2021/03/17 12:30:33;;;;;;;18.87;5.97;;;6.00;97.30;;;;;;5025827;28;20780;-75
2021/03/17 12:32:59;;;;;;;15.03;6.20;;;6.30;97.30;;;;;;5054160;28;20723;-75
2021/03/17 12:35:25;;;;;;;13.37;6.60;;;6.40;97.30;;;;;;5053650;28;20406;-74
2021/03/17 12:37:54;;;;;;;13.97;7.57;;;6.30;97.30;;;;;;5053405;28;20259;-74
2021/03/17 12:40:26;;;;;;;13.17;7.07;;;6.20;97.30;;;;;;5053395;28;20409;-74
2021/03/17 12:42:53;;;;;;;13.67;6.70;;;6.20;97.30;;;;;;5054138;28;20410;-75
2021/03/17 12:45:22;;;;;;;14.13;7.60;;;6.10;97.30;;;;;;5035817;28;20766;-75
2021/03/17 12:47:49;;;;;;;15.30;7.33;;;6.10;97.30;;;;;;5032256;28;20449;-75
2021/03/17 12:50:16;;;;;;;12.27;5.97;;;6.00;97.30;;;;;;5026313;28;20430;-75
2021/03/17 12:52:42;;;;;;;15.13;7.20;;;5.90;97.30;;;;;;5058911;28;21003;-74
2021/03/17 12:55:09;;;;;;;11.37;5.70;;;5.90;97.30;;;;;;5050317;28;20421;-75
2021/03/17 12:57:35;;;;;;;21.00;6.97;;;5.90;97.30;;;;;;5036333;28;20441;-74
2021/03/17 13:00:11;;;;;;;11.73;6.00;;;5.80;97.30;;;;;;5035318;28;20429;-74
2021/03/17 13:02:37;;;;;;;12.50;4.50;;;5.80;97.30;;;;;;5035751;28;20433;-74
2021/03/17 13:05:05;;;;;;;16.67;5.20;;;5.70;97.30;;;;;;5035818;28;20422;-74
2021/03/17 13:07:31;;;;;;;10.90;4.60;;;5.60;97.30;;;;;;5034877;28;20907;-74
2021/03/17 13:09:56;;;;;;;8.43;4.80;;;5.60;97.30;;;;;;5035260;28;20415;-75
2021/03/17 13:12:22;;;;;;;9.97;4.80;;;5.60;97.30;;;;;;5036142;28;20724;-75
2021/03/17 13:14:48;;;;;;;20.17;4.90;;;5.50;97.30;;;;;;5035248;28;20664;-75
2021/03/17 13:17:13;;;;;;;13.60;5.03;;;5.40;97.30;;;;;;5034807;28;20202;-74